Time;durP1;ratioP1;P1;durP2;ratioP2;P2;SDS_P1;SDS_P2;PMS_P1;PMS_P2;Temp;Humidity;BMP_temperature;BMP_pressure;BME280_temperature;BME280_humidity;BME280_pressure;Samples;Min_cycle;Max_cycle;Signal;HPM_P1;HPM_P2
2021/11/06 00:00:37;;;;;;;7.25;3.92;;;9.20;91.40;;;;;;5057701;28;20051;-76
2021/11/06 00:03:06;;;;;;;14.02;4.03;;;9.20;91.40;;;;;;5059053;28;20489;-76
2021/11/06 00:05:34;;;;;;;9.70;4.15;;;9.20;91.40;;;;;;5075544;28;20047;-76
2021/11/06 00:08:03;;;;;;;13.73;4.00;;;9.20;91.30;;;;;;5075582;28;20055;-75
2021/11/06 00:10:31;;;;;;;6.45;3.58;;;9.20;91.30;;;;;;5092642;28;20055;-76
2021/11/06 00:12:59;;;;;;;8.27;3.58;;;9.20;91.40;;;;;;5093424;28;20044;-76
2021/11/06 00:15:27;;;;;;;9.80;3.90;;;9.20;91.30;;;;;;5093562;28;20044;-76
2021/11/06 00:17:55;;;;;;;9.32;3.60;;;9.20;91.40;;;;;;5075329;28;20048;-76
2021/11/06 00:20:23;;;;;;;9.30;3.40;;;9.20;91.40;;;;;;5075539;28;20059;-75
2021/11/06 00:22:50;;;;;;;7.32;3.53;;;9.20;91.40;;;;;;5093376;28;20047;-76
2021/11/06 00:25:18;;;;;;;9.77;3.50;;;9.20;91.30;;;;;;5093336;28;20068;-75
2021/11/06 00:27:46;;;;;;;8.23;3.30;;;9.20;91.30;;;;;;5093369;28;20040;-75
2021/11/06 00:30:14;;;;;;;8.70;3.20;;;9.20;91.30;;;;;;5081943;28;20052;-76
2021/11/06 00:32:43;;;;;;;4.60;2.90;;;9.20;91.30;;;;;;5071817;28;20032;-76
2021/11/06 00:35:13;;;;;;;6.38;2.92;;;9.20;91.30;;;;;;5070418;28;20484;-75
2021/11/06 00:37:42;;;;;;;4.45;2.60;;;9.20;91.30;;;;;;5078617;28;20079;-75
2021/11/06 00:40:11;;;;;;;7.45;2.50;;;9.30;91.30;;;;;;5071750;28;20048;-76
2021/11/06 00:42:39;;;;;;;5.78;2.63;;;9.30;91.30;;;;;;5092067;28;20044;-76
2021/11/06 00:45:07;;;;;;;5.47;2.50;;;9.30;91.20;;;;;;5089152;28;20508;-76
2021/11/06 00:47:36;;;;;;;4.07;2.38;;;9.30;91.20;;;;;;5058463;28;20051;-76
2021/11/06 00:50:07;;;;;;;3.35;2.05;;;9.20;91.20;;;;;;5074607;28;20382;-76
2021/11/06 00:52:35;;;;;;;8.02;2.47;;;9.20;91.20;;;;;;5092215;28;20055;-75
2021/11/06 00:55:04;;;;;;;5.47;1.85;;;9.20;91.20;;;;;;5092281;28;20052;-75
2021/11/06 00:57:32;;;;;;;4.97;2.20;;;9.30;91.30;;;;;;5092661;28;20051;-76
2021/11/06 00:59:59;;;;;;;6.00;2.25;;;9.30;91.30;;;;;;5074555;28;20048;-75
2021/11/06 01:02:27;;;;;;;5.68;1.70;;;9.30;91.20;;;;;;5074704;28;20048;-75
2021/11/06 01:04:56;;;;;;;4.20;1.90;;;9.30;91.20;;;;;;5092348;28;20051;-76
2021/11/06 01:07:23;;;;;;;4.03;1.85;;;9.30;91.10;;;;;;5074393;28;20055;-76
2021/11/06 01:09:51;;;;;;;5.28;1.92;;;9.30;91.10;;;;;;5091489;28;20064;-76
2021/11/06 01:12:18;;;;;;;9.45;2.10;;;9.40;91.00;;;;;;5092548;28;20044;-75
2021/11/06 01:14:46;;;;;;;2.83;1.70;;;9.40;90.90;;;;;;5086693;28;20373;-75
2021/11/06 01:17:14;;;;;;;2.53;1.80;;;9.40;90.90;;;;;;5062114;28;20060;-76
2021/11/06 01:19:41;;;;;;;2.42;1.70;;;9.50;90.90;;;;;;5081759;28;20051;-76
2021/11/06 01:22:09;;;;;;;4.82;2.17;;;9.50;90.80;;;;;;5082626;28;20063;-76
2021/11/06 01:24:37;;;;;;;3.67;1.90;;;9.50;90.60;;;;;;5063701;28;20048;-76
2021/11/06 01:27:05;;;;;;;4.88;1.50;;;9.60;90.60;;;;;;5082471;28;20040;-76
2021/11/06 01:29:32;;;;;;;3.03;1.60;;;9.60;90.50;;;;;;5082437;28;20043;-76
2021/11/06 01:32:01;;;;;;;4.25;1.70;;;9.60;90.40;;;;;;5079545;28;20032;-76
2021/11/06 01:34:29;;;;;;;2.88;1.65;;;9.60;90.30;;;;;;5064443;28;20052;-73
2021/11/06 01:36:56;;;;;;;5.28;1.88;;;9.70;90.20;;;;;;5047728;28;20059;-76
2021/11/06 01:39:24;;;;;;;3.47;1.58;;;9.70;90.20;;;;;;5063221;28;20053;-76
2021/11/06 01:41:52;;;;;;;3.83;1.77;;;9.70;90.10;;;;;;5050069;28;20043;-76
2021/11/06 01:44:20;;;;;;;3.65;1.73;;;9.70;90.00;;;;;;5081213;28;20417;-76
2021/11/06 01:46:47;;;;;;;2.40;1.45;;;9.70;89.90;;;;;;5046043;28;20545;-76
2021/11/06 01:49:15;;;;;;;3.65;1.63;;;9.70;89.80;;;;;;5082266;28;20051;-76
2021/11/06 01:51:43;;;;;;;4.38;1.77;;;9.70;89.80;;;;;;5063273;28;20047;-75
2021/11/06 01:54:10;;;;;;;5.03;1.70;;;9.80;89.70;;;;;;5081627;28;20043;-76
2021/11/06 01:56:38;;;;;;;4.93;2.00;;;9.80;89.60;;;;;;5063928;28;20055;-75
2021/11/06 01:59:06;;;;;;;5.80;1.77;;;9.80;89.60;;;;;;5063414;28;20063;-76
2021/11/06 02:01:35;;;;;;;4.45;2.25;;;9.70;89.50;;;;;;5079733;28;20043;-76
2021/11/06 02:04:03;;;;;;;3.25;1.80;;;9.80;89.50;;;;;;5063107;28;20503;-76
2021/11/06 02:06:31;;;;;;;6.65;1.90;;;9.80;89.40;;;;;;5080671;28;20532;-74
2021/11/06 02:08:59;;;;;;;3.58;2.10;;;9.80;89.30;;;;;;5063669;28;20493;-74
2021/11/06 02:11:28;;;;;;;5.97;2.22;;;9.70;89.30;;;;;;5045842;28;20048;-75
2021/11/06 02:13:56;;;;;;;6.97;2.65;;;9.70;89.30;;;;;;5032809;28;20044;-74
2021/11/06 02:16:24;;;;;;;8.88;2.50;;;9.80;89.30;;;;;;5064087;28;20469;-74
2021/11/06 02:18:51;;;;;;;4.03;2.10;;;9.70;89.30;;;;;;5082082;28;20063;-74
2021/11/06 02:21:20;;;;;;;4.95;2.25;;;9.70;89.30;;;;;;5044646;28;20485;-73
2021/11/06 02:23:49;;;;;;;5.57;2.22;;;9.80;89.20;;;;;;5084258;28;20477;-74
2021/11/06 02:26:19;;;;;;;5.55;1.90;;;9.80;89.10;;;;;;5046858;28;20059;-76
2021/11/06 02:29:07;;;;;;;6.30;2.20;;;9.80;89.00;;;;;;5047532;28;20318;-76
2021/11/06 02:31:35;;;;;;;5.88;2.70;;;9.80;89.00;;;;;;5072006;28;20063;-76
2021/11/06 02:34:03;;;;;;;3.60;2.60;;;9.80;88.90;;;;;;5089559;28;20051;-76
2021/11/06 02:36:30;;;;;;;6.20;2.00;;;9.80;88.90;;;;;;5086944;28;20138;-76
2021/11/06 02:38:58;;;;;;;3.25;2.20;;;9.80;88.90;;;;;;5081448;28;20059;-76
2021/11/06 02:41:26;;;;;;;6.20;2.17;;;9.80;88.90;;;;;;5052277;28;20111;-76
2021/11/06 02:43:58;;;;;;;8.73;2.72;;;9.70;88.90;;;;;;5085235;28;20063;-76
2021/11/06 02:46:26;;;;;;;4.38;2.47;;;9.80;88.80;;;;;;5090404;28;20047;-76
2021/11/06 02:48:53;;;;;;;3.95;2.35;;;9.80;88.80;;;;;;5073923;28;20400;-75
2021/11/06 02:51:21;;;;;;;5.75;2.58;;;9.80;88.70;;;;;;5071961;28;20043;-75
2021/11/06 02:53:49;;;;;;;6.05;2.63;;;9.80;88.80;;;;;;5071622;28;20059;-75
2021/11/06 02:56:16;;;;;;;5.03;2.90;;;9.80;88.80;;;;;;5073723;28;20048;-75
2021/11/06 02:58:44;;;;;;;3.83;2.95;;;9.80;88.80;;;;;;5073642;28;20056;-75
2021/11/06 03:01:11;;;;;;;5.32;2.78;;;9.80;88.70;;;;;;5091608;28;20040;-75
2021/11/06 03:03:39;;;;;;;4.35;2.80;;;9.80;88.70;;;;;;5089532;28;20059;-75
2021/11/06 03:06:07;;;;;;;4.53;2.80;;;9.80;88.70;;;;;;5072893;28;20044;-75
2021/11/06 03:08:34;;;;;;;7.13;3.13;;;9.80;88.70;;;;;;5074611;28;20401;-75
2021/11/06 03:11:02;;;;;;;5.18;3.05;;;9.80;88.70;;;;;;5060623;28;20052;-75
2021/11/06 03:13:31;;;;;;;5.68;2.90;;;9.80;88.70;;;;;;5094962;28;20417;-76
2021/11/06 03:15:59;;;;;;;10.77;3.42;;;9.80;88.70;;;;;;5076247;28;20048;-76
2021/11/06 03:18:27;;;;;;;4.70;3.08;;;9.80;88.70;;;;;;5095234;28;20048;-76
2021/11/06 03:20:55;;;;;;;8.75;3.15;;;9.80;88.70;;;;;;5076703;28;20389;-76
2021/11/06 03:23:27;;;;;;;7.80;3.17;;;9.80;88.60;;;;;;5060356;28;20048;-75
2021/11/06 03:25:56;;;;;;;3.47;2.67;;;9.80;88.60;;;;;;5091173;28;20041;-75
2021/11/06 03:28:24;;;;;;;6.00;2.90;;;9.80;88.60;;;;;;5083330;28;20417;-75
2021/11/06 03:30:51;;;;;;;6.20;3.10;;;9.80;88.60;;;;;;5076618;28;20051;-75
2021/11/06 03:33:19;;;;;;;4.68;2.90;;;9.80;88.60;;;;;;5095095;28;20062;-75
2021/11/06 03:35:47;;;;;;;5.50;2.97;;;9.80;88.60;;;;;;5095142;28;20047;-75
2021/11/06 03:38:15;;;;;;;6.43;3.20;;;9.80;88.60;;;;;;5060381;28;20044;-76
2021/11/06 03:40:42;;;;;;;7.63;3.40;;;9.80;88.60;;;;;;5094904;28;20047;-75
2021/11/06 03:43:10;;;;;;;8.63;3.80;;;9.80;88.60;;;;;;5077163;28;20060;-76
2021/11/06 03:45:38;;;;;;;6.68;3.22;;;9.80;88.60;;;;;;5094273;28;20052;-75
2021/11/06 03:48:05;;;;;;;6.22;3.28;;;9.70;88.60;;;;;;5094055;28;20416;-76
2021/11/06 03:50:33;;;;;;;6.05;3.58;;;9.70;88.70;;;;;;5094216;28;20505;-76
2021/11/06 03:53:01;;;;;;;5.93;3.28;;;9.70;88.60;;;;;;5075492;28;20071;-76
2021/11/06 03:55:28;;;;;;;8.05;3.75;;;9.80;88.60;;;;;;5059393;28;20063;-75
2021/11/06 03:57:57;;;;;;;5.68;3.67;;;9.80;88.60;;;;;;5094182;28;20052;-75
2021/11/06 04:00:25;;;;;;;5.97;3.35;;;9.70;88.60;;;;;;5093847;28;20054;-76
2021/11/06 04:02:53;;;;;;;5.80;3.00;;;9.70;88.70;;;;;;5075331;28;20040;-75
2021/11/06 04:05:21;;;;;;;6.10;3.40;;;9.70;88.70;;;;;;5076284;28;20373;-75
2021/11/06 04:07:48;;;;;;;6.78;3.20;;;9.70;88.70;;;;;;5093055;28;20059;-75
2021/11/06 04:10:16;;;;;;;4.82;3.10;;;9.70;88.80;;;;;;5075932;28;20139;-75
2021/11/06 04:12:45;;;;;;;5.43;2.85;;;9.70;88.80;;;;;;5059245;28;20050;-75
2021/11/06 04:15:14;;;;;;;4.10;2.80;;;9.70;88.70;;;;;;5075662;28;20044;-75
2021/11/06 04:17:42;;;;;;;6.00;2.60;;;9.70;88.60;;;;;;5075891;28;20047;-75
2021/11/06 04:20:10;;;;;;;6.40;2.90;;;9.70;88.60;;;;;;5074500;28;20520;-75
2021/11/06 04:22:38;;;;;;;6.28;2.88;;;9.80;88.60;;;;;;5059007;28;20048;-75
2021/11/06 04:25:06;;;;;;;3.90;2.90;;;9.70;88.60;;;;;;5093644;28;20048;-75
2021/11/06 04:27:35;;;;;;;6.88;2.63;;;9.80;88.50;;;;;;5075358;28;20048;-75
2021/11/06 04:30:06;;;;;;;5.45;2.60;;;9.80;88.50;;;;;;5070398;28;20047;-76
2021/11/06 04:32:33;;;;;;;6.20;2.58;;;9.80;88.30;;;;;;5092915;28;20059;-75
2021/11/06 04:35:01;;;;;;;5.63;2.33;;;9.80;88.30;;;;;;5074938;28;20060;-75
2021/11/06 04:37:29;;;;;;;6.40;2.83;;;9.80;88.20;;;;;;5058813;28;20051;-75
2021/11/06 04:39:56;;;;;;;7.05;2.42;;;9.80;88.20;;;;;;5063570;28;20052;-75
2021/11/06 04:42:24;;;;;;;5.05;2.65;;;9.80;88.20;;;;;;5075240;28;20335;-76
2021/11/06 04:44:52;;;;;;;6.65;2.40;;;9.80;88.20;;;;;;5075486;28;20067;-76
2021/11/06 04:47:19;;;;;;;3.03;2.40;;;9.80;88.20;;;;;;5093522;28;20051;-76
2021/11/06 04:49:47;;;;;;;6.20;2.58;;;9.80;88.20;;;;;;5092748;28;20055;-76
2021/11/06 04:52:14;;;;;;;3.72;2.80;;;9.80;88.10;;;;;;5091890;28;20056;-75
2021/11/06 04:54:42;;;;;;;10.70;2.40;;;9.80;88.20;;;;;;5093461;28;20043;-75
2021/11/06 04:57:09;;;;;;;4.13;2.22;;;9.80;88.10;;;;;;5093193;28;20044;-76
2021/11/06 04:59:37;;;;;;;7.20;2.65;;;9.80;88.10;;;;;;5092538;28;20126;-75
2021/11/06 05:02:05;;;;;;;4.85;2.38;;;9.80;88.10;;;;;;5054107;28;20052;-76
2021/11/06 05:04:33;;;;;;;8.18;2.85;;;9.80;88.20;;;;;;5073085;28;20048;-75
2021/11/06 05:07:00;;;;;;;4.50;2.70;;;9.80;88.10;;;;;;5073000;28;20055;-76
2021/11/06 05:09:28;;;;;;;5.30;2.40;;;9.80;88.20;;;;;;5072956;28;20048;-75
2021/11/06 05:11:56;;;;;;;5.47;2.72;;;9.70;88.30;;;;;;5090273;28;20048;-75
2021/11/06 05:14:24;;;;;;;5.45;2.85;;;9.70;88.40;;;;;;5092587;28;20052;-75
2021/11/06 05:16:52;;;;;;;7.53;2.88;;;9.80;88.50;;;;;;5093131;28;20486;-75
2021/11/06 05:19:19;;;;;;;4.00;2.80;;;9.70;88.50;;;;;;5092990;28;20056;-76
2021/11/06 05:21:47;;;;;;;6.88;2.92;;;9.70;88.50;;;;;;5091438;28;20489;-76
2021/11/06 05:24:14;;;;;;;9.07;2.97;;;9.70;88.50;;;;;;5092365;28;20060;-75
2021/11/06 05:26:42;;;;;;;6.40;2.97;;;9.70;88.50;;;;;;5064122;28;20056;-76
2021/11/06 05:29:10;;;;;;;6.40;3.33;;;9.70;88.60;;;;;;5068429;28;20044;-76
2021/11/06 05:31:39;;;;;;;9.38;3.92;;;9.70;88.60;;;;;;5073595;28;20044;-75
2021/11/06 05:34:07;;;;;;;10.85;3.72;;;9.70;88.60;;;;;;5074504;28;20051;-75
2021/11/06 05:36:35;;;;;;;6.85;3.75;;;9.60;88.70;;;;;;5092452;28;20381;-76
2021/11/06 05:39:04;;;;;;;10.73;4.57;;;9.60;88.70;;;;;;5058136;28;20074;-75
2021/11/06 05:41:32;;;;;;;6.88;3.60;;;9.50;88.80;;;;;;5092216;28;20051;-75
2021/11/06 05:44:00;;;;;;;8.35;3.80;;;9.50;89.00;;;;;;5074637;28;20066;-76
2021/11/06 05:46:28;;;;;;;7.20;3.40;;;9.50;89.00;;;;;;5073495;28;20055;-76
2021/11/06 05:48:55;;;;;;;8.93;3.80;;;9.50;89.10;;;;;;5071598;28;20048;-75
2021/11/06 05:51:39;;;;;;;6.35;3.20;;;9.50;89.20;;;;;;5074553;28;20040;-76
2021/11/06 05:54:07;;;;;;;9.43;3.20;;;9.50;89.20;;;;;;5090191;28;20398;-76
2021/11/06 05:56:35;;;;;;;8.38;2.90;;;9.50;89.20;;;;;;5089774;28;20047;-75
2021/11/06 05:59:03;;;;;;;5.70;2.38;;;9.50;89.20;;;;;;5071356;28;20051;-75
2021/11/06 06:01:30;;;;;;;4.43;2.63;;;9.50;89.20;;;;;;5072480;28;20048;-75
2021/11/06 06:03:58;;;;;;;6.68;2.78;;;9.60;89.20;;;;;;5057379;28;20485;-76
2021/11/06 06:06:25;;;;;;;5.93;2.75;;;9.50;89.20;;;;;;5057791;28;20056;-75
2021/11/06 06:08:53;;;;;;;4.78;2.67;;;9.50;89.20;;;;;;5074160;28;20048;-76
2021/11/06 06:11:21;;;;;;;6.00;2.60;;;9.60;89.20;;;;;;5091745;28;20040;-75
2021/11/06 06:13:48;;;;;;;6.07;2.20;;;9.60;89.10;;;;;;5073925;28;20048;-76
2021/11/06 06:16:16;;;;;;;6.93;2.42;;;9.60;89.00;;;;;;5073522;28;20437;-76
2021/11/06 06:18:46;;;;;;;8.90;2.85;;;9.60;89.00;;;;;;5091342;28;20040;-75
2021/11/06 06:21:14;;;;;;;7.55;3.67;;;9.60;88.90;;;;;;5091063;28;20059;-76
2021/11/06 06:23:42;;;;;;;11.38;2.63;;;9.60;89.00;;;;;;5057273;28;20066;-75
2021/11/06 06:26:11;;;;;;;8.18;2.72;;;9.50;89.10;;;;;;5085729;28;20393;-75
2021/11/06 06:28:39;;;;;;;3.50;2.20;;;9.60;89.10;;;;;;5087240;28;20055;-75
2021/11/06 06:31:07;;;;;;;6.72;2.65;;;9.50;89.20;;;;;;5040680;28;20044;-75
2021/11/06 06:33:34;;;;;;;5.88;1.80;;;9.60;89.30;;;;;;5040444;28;20512;-75
2021/11/06 06:36:03;;;;;;;4.72;1.90;;;9.60;89.30;;;;;;5073695;28;20044;-76
2021/11/06 06:38:31;;;;;;;5.50;1.73;;;9.60;89.20;;;;;;5091423;28;20052;-76
2021/11/06 06:41:00;;;;;;;8.80;2.15;;;9.60;89.20;;;;;;5057288;28;20044;-75
2021/11/06 06:43:27;;;;;;;6.25;2.05;;;9.60;89.20;;;;;;5092412;28;20052;-76
2021/11/06 06:45:55;;;;;;;7.82;2.30;;;9.60;89.10;;;;;;5096135;28;20040;-75
2021/11/06 06:48:23;;;;;;;6.57;2.08;;;9.60;89.20;;;;;;5077035;28;20051;-76
2021/11/06 06:50:51;;;;;;;3.85;1.83;;;9.60;89.10;;;;;;5077636;28;20497;-76
2021/11/06 06:53:20;;;;;;;5.53;1.92;;;9.60;89.20;;;;;;5077726;28;20048;-76
2021/11/06 06:55:48;;;;;;;7.22;1.60;;;9.60;89.20;;;;;;5094968;28;20048;-75
2021/11/06 06:58:16;;;;;;;2.97;1.63;;;9.60;89.30;;;;;;5060973;28;20052;-75
2021/11/06 07:00:44;;;;;;;4.57;1.92;;;9.60;89.20;;;;;;5077723;28;20056;-76
2021/11/06 07:03:12;;;;;;;7.05;1.67;;;9.60;89.30;;;;;;5095715;28;20040;-76
2021/11/06 07:05:39;;;;;;;3.22;1.63;;;9.50;89.30;;;;;;5077895;28;20052;-76
2021/11/06 07:08:07;;;;;;;7.63;1.95;;;9.50;89.40;;;;;;5094916;28;20044;-75
2021/11/06 07:10:35;;;;;;;6.35;1.70;;;9.50;89.40;;;;;;5095582;28;20512;-75
2021/11/06 07:13:03;;;;;;;6.50;1.70;;;9.50;89.40;;;;;;5061248;28;20051;-75
2021/11/06 07:15:31;;;;;;;8.50;1.60;;;9.60;89.40;;;;;;5095539;28;20044;-76
2021/11/06 07:17:59;;;;;;;5.88;1.55;;;9.60;89.40;;;;;;5095192;28;20040;-75
2021/11/06 07:20:27;;;;;;;9.70;2.20;;;9.60;89.30;;;;;;5094143;28;20059;-75
2021/11/06 07:22:54;;;;;;;7.13;2.13;;;9.50;89.30;;;;;;5095209;28;20508;-75
2021/11/06 07:25:22;;;;;;;6.97;2.25;;;9.50;89.30;;;;;;5060984;28;20051;-75
2021/11/06 07:27:50;;;;;;;5.20;1.40;;;9.50;89.30;;;;;;5081981;28;20036;-76
2021/11/06 07:30:21;;;;;;;5.45;1.30;;;9.50;89.50;;;;;;5095290;28;20491;-75
2021/11/06 07:32:49;;;;;;;4.35;1.50;;;9.50;89.50;;;;;;5059476;28;20052;-76
2021/11/06 07:35:16;;;;;;;4.43;1.17;;;9.50;89.60;;;;;;5095233;28;20051;-76
2021/11/06 07:37:44;;;;;;;8.95;1.30;;;9.50;89.60;;;;;;5094726;28;20043;-75
2021/11/06 07:40:13;;;;;;;5.43;0.90;;;9.50;89.70;;;;;;5076880;28;20063;-75
2021/11/06 07:42:42;;;;;;;3.85;0.93;;;9.60;89.70;;;;;;5077179;28;20040;-76
2021/11/06 07:45:12;;;;;;;1.92;0.90;;;9.60;89.60;;;;;;5060281;28;20420;-76
2021/11/06 07:47:40;;;;;;;4.53;0.85;;;9.60;89.50;;;;;;5076564;28;20063;-76
2021/11/06 07:50:10;;;;;;;8.15;1.10;;;9.60;89.50;;;;;;5076815;28;20048;-76
2021/11/06 07:52:37;;;;;;;5.03;1.30;;;9.60;89.50;;;;;;5094964;28;20398;-76
2021/11/06 07:55:06;;;;;;;6.13;1.20;;;9.60;89.50;;;;;;5076252;28;20040;-75
2021/11/06 07:57:33;;;;;;;3.90;1.00;;;9.60;89.40;;;;;;5059749;28;20040;-76
2021/11/06 08:00:04;;;;;;;2.97;0.80;;;9.60;89.40;;;;;;5076198;28;20052;-75
2021/11/06 08:02:38;;;;;;;4.57;0.77;;;9.70;89.40;;;;;;5094571;28;20039;-75
2021/11/06 08:05:11;;;;;;;3.80;0.90;;;9.70;89.40;;;;;;5059736;28;20550;-75
2021/11/06 08:07:40;;;;;;;7.28;1.42;;;9.70;89.30;;;;;;5094445;28;20504;-75
2021/11/06 08:10:09;;;;;;;1.85;0.70;;;9.70;89.20;;;;;;5094471;28;20043;-75
2021/11/06 08:12:38;;;;;;;3.50;0.60;;;9.80;89.10;;;;;;5076461;28;20051;-75
2021/11/06 08:15:08;;;;;;;2.30;0.60;;;9.80;89.00;;;;;;5093391;28;20056;-75
2021/11/06 08:17:36;;;;;;;4.80;1.08;;;9.80;88.90;;;;;;5075965;28;20424;-76
2021/11/06 08:20:05;;;;;;;3.63;0.80;;;9.90;88.90;;;;;;5094214;28;20055;-75
2021/11/06 08:22:34;;;;;;;7.72;0.63;;;9.80;88.80;;;;;;5076000;28;20054;-75
2021/11/06 08:25:02;;;;;;;5.00;0.98;;;9.90;88.70;;;;;;5059591;28;20066;-75
2021/11/06 08:27:31;;;;;;;3.42;1.10;;;9.90;88.70;;;;;;5065582;28;20491;-75
2021/11/06 08:29:58;;;;;;;5.78;1.17;;;9.90;88.60;;;;;;5094050;28;20048;-76
2021/11/06 08:32:26;;;;;;;2.47;0.60;;;9.90;88.70;;;;;;5094264;28;20234;-75
2021/11/06 08:34:54;;;;;;;2.25;0.90;;;9.90;88.70;;;;;;5093361;28;20470;-75
2021/11/06 08:37:21;;;;;;;3.42;0.70;;;10.00;88.70;;;;;;5092805;28;20055;-75
2021/11/06 08:39:49;;;;;;;7.15;1.05;;;10.00;88.60;;;;;;5093128;28;20405;-75
2021/11/06 08:42:17;;;;;;;1.98;0.70;;;10.00;88.60;;;;;;5094041;28;20044;-75
2021/11/06 08:44:44;;;;;;;1.98;0.70;;;10.10;88.50;;;;;;5075598;28;20052;-75
2021/11/06 08:47:12;;;;;;;2.47;0.50;;;10.10;88.40;;;;;;5093154;28;20043;-75
2021/11/06 08:49:40;;;;;;;6.22;0.60;;;10.20;88.20;;;;;;5093398;28;20556;-76
2021/11/06 08:52:08;;;;;;;4.90;0.50;;;10.30;88.10;;;;;;5093917;28;20048;-75
2021/11/06 08:54:37;;;;;;;1.75;0.50;;;10.30;87.80;;;;;;5075542;28;20075;-76
2021/11/06 08:57:06;;;;;;;1.23;0.50;;;10.40;87.30;;;;;;5093709;28;20044;-76
2021/11/06 08:59:33;;;;;;;4.68;0.85;;;10.40;86.90;;;;;;5074971;28;20512;-76
2021/11/06 09:02:01;;;;;;;1.80;0.50;;;10.50;86.60;;;;;;5075578;28;20048;-76
2021/11/06 09:04:29;;;;;;;2.22;0.75;;;10.60;86.10;;;;;;5093532;28;20039;-75
2021/11/06 09:06:57;;;;;;;4.70;0.63;;;10.70;86.10;;;;;;5074630;28;20127;-75
2021/11/06 09:09:25;;;;;;;4.70;0.90;;;10.80;85.90;;;;;;5092779;28;20035;-76
2021/11/06 09:11:54;;;;;;;4.38;1.00;;;10.80;85.40;;;;;;5075364;28;20044;-76
2021/11/06 09:14:22;;;;;;;5.55;0.70;;;10.90;85.30;;;;;;5058184;28;20052;-76
2021/11/06 09:16:49;;;;;;;3.03;0.85;;;10.90;85.10;;;;;;5093040;28;20043;-76
2021/11/06 09:19:17;;;;;;;2.60;0.55;;;11.00;84.90;;;;;;5092994;28;20503;-76
2021/11/06 09:21:46;;;;;;;4.15;0.65;;;11.00;84.60;;;;;;5092254;28;20052;-76
2021/11/06 09:24:14;;;;;;;3.97;0.65;;;11.10;84.00;;;;;;5093203;28;20043;-76
2021/11/06 09:26:45;;;;;;;4.40;0.55;;;11.10;84.00;;;;;;5064258;28;20044;-76
2021/11/06 09:29:15;;;;;;;4.18;0.60;;;11.20;83.80;;;;;;5083153;28;20048;-76
2021/11/06 09:31:43;;;;;;;2.15;0.50;;;11.20;83.80;;;;;;5073979;28;20059;-76
2021/11/06 09:34:12;;;;;;;5.03;0.63;;;11.30;83.80;;;;;;5074706;28;20048;-76
2021/11/06 09:36:40;;;;;;;1.67;0.47;;;11.40;83.70;;;;;;5092750;28;20055;-76
2021/11/06 09:39:10;;;;;;;2.53;0.30;;;11.60;83.30;;;;;;5092558;28;20036;-76
2021/11/06 09:41:39;;;;;;;4.03;0.40;;;11.70;82.60;;;;;;5092434;28;20047;-76
2021/11/06 09:44:08;;;;;;;3.67;0.40;;;11.80;82.50;;;;;;5074584;28;20051;-76
2021/11/06 09:46:36;;;;;;;1.90;0.30;;;11.90;82.40;;;;;;5092389;28;20048;-76
2021/11/06 09:49:04;;;;;;;0.20;0.20;;;11.90;81.90;;;;;;5092265;28;20050;-76
2021/11/06 09:51:33;;;;;;;1.35;0.13;;;11.90;81.90;;;;;;5084527;28;20059;-76
2021/11/06 09:54:04;;;;;;;0.30;0.20;;;11.90;81.90;;;;;;5079706;28;20032;-76
2021/11/06 09:56:31;;;;;;;1.00;0.20;;;11.80;82.00;;;;;;5064561;28;20062;-76
2021/11/06 09:59:02;;;;;;;0.65;0.13;;;11.80;81.90;;;;;;5091594;28;20051;-76
2021/11/06 10:01:32;;;;;;;2.67;0.20;;;11.80;82.30;;;;;;5091502;28;20056;-76
2021/11/06 10:04:07;;;;;;;1.35;0.20;;;11.80;82.60;;;;;;5064735;28;20048;-76
2021/11/06 10:06:38;;;;;;;0.75;0.20;;;11.80;82.70;;;;;;5051369;28;20063;-76
2021/11/06 10:09:10;;;;;;;0.75;0.30;;;11.80;82.70;;;;;;5091706;28;20504;-76
2021/11/06 10:11:48;;;;;;;3.13;0.47;;;11.80;82.40;;;;;;5092148;28;20048;-76
2021/11/06 10:14:26;;;;;;;1.35;0.47;;;11.80;82.50;;;;;;5092230;28;20063;-76
2021/11/06 10:16:57;;;;;;;0.55;0.20;;;11.80;82.90;;;;;;5091752;28;20046;-76
2021/11/06 10:19:36;;;;;;;5.55;0.47;;;11.80;83.00;;;;;;5090702;28;20051;-76
2021/11/06 10:22:14;;;;;;;2.05;0.30;;;11.80;82.90;;;;;;5073571;28;20477;-76
2021/11/06 10:24:51;;;;;;;0.88;0.32;;;11.80;83.00;;;;;;5090802;28;20044;-76
2021/11/06 10:27:31;;;;;;;2.53;0.38;;;11.70;83.00;;;;;;5091274;28;20055;-76
2021/11/06 10:30:16;;;;;;;1.67;0.25;;;11.60;83.30;;;;;;5073020;28;20396;-76
2021/11/06 10:32:55;;;;;;;1.30;0.20;;;11.70;83.30;;;;;;5091497;28;20048;-76
2021/11/06 10:35:26;;;;;;;0.43;0.20;;;11.70;83.40;;;;;;5090590;28;20040;-76
2021/11/06 10:37:58;;;;;;;1.13;0.20;;;11.80;83.40;;;;;;5091163;28;20058;-76
2021/11/06 10:40:30;;;;;;;1.55;0.20;;;11.80;82.90;;;;;;5089957;28;20047;-76
2021/11/06 10:43:01;;;;;;;1.00;0.30;;;11.90;82.60;;;;;;5073209;28;20055;-76
2021/11/06 10:45:32;;;;;;;1.48;0.30;;;11.90;82.30;;;;;;5056988;28;20063;-79
2021/11/06 10:48:01;;;;;;;1.70;0.43;;;12.00;82.10;;;;;;5073687;28;20051;-79
2021/11/06 10:50:59;;;;;;;1.02;0.17;;;12.10;81.60;;;;;;5073263;28;20036;-79
2021/11/06 10:53:39;;;;;;;4.28;0.40;;;12.10;81.30;;;;;;5053574;28;20063;-87
2021/11/06 10:56:48;;;;;;;2.25;0.20;;;12.20;80.90;;;;;;5073772;28;20044;-79
2021/11/06 10:59:19;;;;;;;1.00;0.10;;;12.20;80.90;;;;;;5042537;28;20052;-80
2021/11/06 11:01:56;;;;;;;0.95;0.15;;;12.30;80.50;;;;;;5073083;28;20063;-79
2021/11/06 11:04:25;;;;;;;2.70;0.20;;;12.20;80.60;;;;;;5074065;28;20051;-79
2021/11/06 11:06:56;;;;;;;1.35;0.30;;;12.20;80.50;;;;;;5090249;28;20059;-79
2021/11/06 11:09:33;;;;;;;3.42;0.30;;;12.20;80.40;;;;;;5083535;28;20044;-79
2021/11/06 11:12:02;;;;;;;2.13;0.45;;;12.20;80.70;;;;;;5072927;28;20044;-79
2021/11/06 11:14:32;;;;;;;2.90;0.30;;;12.20;80.60;;;;;;5091569;28;20048;-79
2021/11/06 11:17:05;;;;;;;4.20;0.70;;;12.20;80.60;;;;;;5071995;28;20047;-79
2021/11/06 11:19:44;;;;;;;1.23;0.45;;;12.20;80.70;;;;;;5073394;28;20051;-79
2021/11/06 11:22:29;;;;;;;1.05;0.20;;;12.20;80.70;;;;;;5073005;28;20043;-79
2021/11/06 11:24:58;;;;;;;1.10;0.28;;;12.20;81.10;;;;;;5090935;28;20059;-79
2021/11/06 11:27:44;;;;;;;2.33;0.50;;;12.10;81.00;;;;;;5091040;28;20397;-79
2021/11/06 11:30:12;;;;;;;4.85;0.30;;;12.00;81.40;;;;;;5093099;28;20059;-79
2021/11/06 11:32:40;;;;;;;2.28;0.20;;;11.90;81.90;;;;;;5076338;28;20048;-79
2021/11/06 11:35:09;;;;;;;1.50;0.30;;;11.90;82.20;;;;;;5093452;28;20044;-79
2021/11/06 11:37:38;;;;;;;1.83;0.30;;;11.90;82.20;;;;;;5076375;28;20044;-79
2021/11/06 11:40:07;;;;;;;3.42;0.50;;;11.90;82.30;;;;;;5075860;28;20044;-79
2021/11/06 11:42:40;;;;;;;2.15;0.43;;;11.90;82.40;;;;;;5093990;28;20052;-79
2021/11/06 11:45:18;;;;;;;2.17;0.50;;;11.90;82.20;;;;;;5094499;28;20040;-79
2021/11/06 11:48:10;;;;;;;2.28;0.40;;;11.90;82.00;;;;;;5076710;28;20056;-79
2021/11/06 11:50:41;;;;;;;1.10;0.38;;;12.00;81.80;;;;;;5074273;28;20040;-79
2021/11/06 11:53:20;;;;;;;1.13;0.47;;;12.00;81.10;;;;;;5090115;28;20044;-79
2021/11/06 11:55:50;;;;;;;4.13;0.65;;;12.00;81.40;;;;;;5094170;28;20040;-79
2021/11/06 11:58:23;;;;;;;1.92;0.32;;;12.10;81.40;;;;;;5094180;28;20052;-79
2021/11/06 12:00:50;;;;;;;0.70;0.30;;;12.10;81.30;;;;;;5076266;28;20497;-79
2021/11/06 12:03:41;;;;;;;2.20;0.40;;;12.20;81.00;;;;;;5093854;28;20643;-79
2021/11/06 12:06:31;;;;;;;1.92;0.50;;;12.20;80.90;;;;;;5064835;28;20036;-79
2021/11/06 12:09:11;;;;;;;0.95;0.50;;;12.30;80.20;;;;;;5094052;28;20048;-78
2021/11/06 12:11:56;;;;;;;2.83;0.60;;;12.30;79.90;;;;;;5094340;28;20404;-78
2021/11/06 12:14:30;;;;;;;1.65;0.50;;;12.30;80.10;;;;;;5086298;28;20039;-79
2021/11/06 12:17:02;;;;;;;1.70;0.40;;;12.30;80.10;;;;;;5067272;28;20055;-79
2021/11/06 12:19:57;;;;;;;1.17;0.40;;;12.40;79.70;;;;;;5068151;28;20508;-79
2021/11/06 12:22:32;;;;;;;1.00;0.30;;;12.40;79.40;;;;;;5077562;28;20044;-79
2021/11/06 12:25:20;;;;;;;2.38;0.40;;;12.40;79.60;;;;;;5083599;28;20047;-79
2021/11/06 12:28:07;;;;;;;1.67;0.28;;;12.30;79.50;;;;;;5084696;28;20071;-79
2021/11/06 12:30:36;;;;;;;2.30;0.50;;;12.30;79.70;;;;;;5088896;28;20481;-79
2021/11/06 12:33:06;;;;;;;1.20;0.20;;;12.30;79.70;;;;;;5088365;28;20047;-79
2021/11/06 12:35:34;;;;;;;1.08;0.22;;;12.30;79.60;;;;;;5083254;28;20547;-79
2021/11/06 12:38:02;;;;;;;0.68;0.20;;;12.40;79.20;;;;;;5067439;28;20048;-79
2021/11/06 12:40:55;;;;;;;0.70;0.17;;;12.40;79.10;;;;;;5084803;28;20043;-80
2021/11/06 12:43:26;;;;;;;1.25;0.20;;;12.30;78.90;;;;;;5083356;28;20045;-78
2021/11/06 12:46:27;;;;;;;0.10;0.10;;;12.30;79.00;;;;;;5084438;28;20044;-78
2021/11/06 12:48:57;;;;;;;0.17;0.10;;;12.30;79.10;;;;;;5084498;28;20060;-80
2021/11/06 12:51:32;;;;;;;3.10;0.25;;;12.30;79.20;;;;;;5063641;28;20043;-83
2021/11/06 12:54:03;;;;;;;0.80;0.10;;;12.30;79.20;;;;;;5067106;28;20469;-80
2021/11/06 12:56:52;;;;;;;2.80;0.30;;;12.20;79.30;;;;;;5083922;28;20055;-78
2021/11/06 12:59:21;;;;;;;0.82;0.20;;;12.30;79.00;;;;;;5066245;28;20411;-78
2021/11/06 13:01:52;;;;;;;3.70;0.20;;;12.30;79.20;;;;;;5037216;28;20040;-79
2021/11/06 13:04:20;;;;;;;2.45;0.32;;;12.30;79.20;;;;;;5050594;28;20048;-79
2021/11/06 13:06:51;;;;;;;1.00;0.17;;;12.30;78.70;;;;;;5085869;28;20178;-79